Pagrindinis puslapis
METAR-TAF:

METAR-TAF

Oro uostai :

Orskas, Rusija

platuma: 51-04-18N, ilguma: 058-35-48E, Aukštis: 277 m

Dabartinis oras

Ataskaita buvo paskelbta 32 minutes, ne 20:00 UTC
Vėjas 10 kt iš Pietų/Pietvakarių
Temperatūra 3°C
Drėgmė 93%
Slėgis 1006 hPa
Matomumas 10 km arba daugiau
Išsisklaidę debesys ne aukštis 3300 ft, Liūtiniai kamuoliniai debesys.

METAR: UWOR 222000Z 21005MPS 9999 SCT033CB 03/02 Q1006 R25/190006 NOSIG RMK QFE731/0975

Laikas: 01:32 (20:32 UTC)

Prognozė

Ataskaita buvo paskelbta 3 valandos ir 21 minutes, ne 17:11 UTC
Prognozė galioja nuo 22 metu 18 UTC su 23 metu 03 UTC
Vėjas 16 kt iš Pietvakarių su gūsio iki 27 kt
Matomumas: 3100 m
Su prošvaistėmis ne aukštis 1100 ft
Su prošvaistėmis ne aukštis 1500 ft, Liūtiniai kamuoliniai debesys.
lietus, rūkana
Laikinai
nuo 22 metu 18 UTC su 23 metu 03 UTC
Vėjas 27 kt iš Vakarų/Pietvakarių su gūsio iki 45 kt
Matomumas: 0300 m
ne aukštis 200 ft
rūkas

TAF: UWOR 221711Z 2218/2303 23008G14MPS 3100 -SHRA BR BKN011 BKN015CB TEMPO 2218/2303 24014G23MPS 0300 FG VV002

Orai ataskaitas ir orų prognozės (METAR, TAF).

turimą stotys yra geltonos ir raudonos taškus žemėlapyje.

Perkelti pele per norėdami pamatyti stoties vardą.

Tada spustelėkite, norėdami matyti oro stebėjimo ir prognozės.

Norėdami pakeisti žemėlapį: spustelėkite ant žalios mygtukų su juodo kryžiaus žemyn,; žalią mygtuką su brūkšneliu, jei norite nutolinti; arba žalių rodyklių gretimoms žemėlapius.


METAR-TAF: